Estación Meteorológica Peña el Pijo (Robertgarden) [ 02/02/23 21:29:10 CET ]

Fecha Hora Presion(HPa) Temp (°C) Humedad % Rocio (°C) Viento ( m/s) Direccion Lluvia 1Hora(mm) Lluvia 24H(mm) LLuvia Total(mm)
2010-Feb-23 01:01:13 1000.100 6.6 84 4.1     1.55 2.07 79.77
2010-Feb-23 02:03:16 999.900 6.3 86 4.1       2.07 79.77
2010-Feb-23 03:01:12 999.300 5.5 88 3.7       2.07 79.77
2010-Feb-23 04:01:14 998.800 5.8 90 4.3       2.07 79.77
2010-Feb-23 05:01:14 998.800 7.3 88 5.5       2.07 79.77
2010-Feb-23 06:01:14 1000.300 5.4 87 3.4 1.0 SSE 2.07 4.14 81.84
2010-Feb-23 07:01:12 1000.200 4.6 89 2.9       4.14 81.84
2010-Feb-23 08:01:13 999.800 4.2 89 2.5       4.14 81.84
2010-Feb-23 09:01:13 1000.400 4.8 92 3.6       4.14 81.84
2010-Feb-23 10:01:12 1001.200 5.9 91 4.5       4.14 81.84
2010-Feb-23 11:01:15 1001.700 8.4 86 6.2       4.14 81.84
2010-Feb-23 12:01:14 1001.800 10.3 77 6.4 1.8 S   4.14 81.84
2010-Feb-23 13:01:14 1002.500 11.0 76 6.9       4.14 81.84
2010-Feb-23 14:01:14 1002.200 9.6 77 5.7       4.14 81.84
2010-Feb-23 15:01:14 1001.600 13.3 64 6.6       4.14 81.84
2010-Feb-23 16:01:13 1001.700 12.8 58 4.7 1.3 ESE   4.14 81.84
2010-Feb-23 17:01:18 1001.700 10.9 62 3.9       4.14 81.84
2010-Feb-23 18:01:16 1001.700 9.4 68 3.8       4.14 81.84
2010-Feb-23 19:01:14 1002.800 8.1 72 3.4 1.4 ESE   4.14 81.84
2010-Feb-23 20:01:15 1004.600 5.3 85 3.0 2.9 SSW   4.14 81.84
2010-Feb-23 21:01:15 1004.500 4.5 87 2.5     0.51 5.18 82.88
2010-Feb-23 22:01:16 1004.300 4.9 87 2.9       5.18 82.88
2010-Feb-23 23:01:16 1004.400 5.3 89 3.6 1.1 S   4.66 82.88

Temperatura Máxima:13°    Temperatura Mínima:
Presión Máxima:1004.600 Hpa    Presión Mínima:998.800 Hpa


Volver